Johnson City, Oregon
Current Conditions -  °F | °C
As of 12:53 AM on Tuesday 21 Oct 2014 (Local Time) from KPDX Reporting Station
Overcast Overcast  
Wind Chill: 56°   Ceiling: 6500
Heat Index: 56°   Visibility: 10mi
Dew Point: 52°   Wind: 9mph
Humidity: 87%   Direction: 170°S
Pressure: 29.88"   Gusts: NA
Location:  45.4079°N, 122.613°W
Report Text: KPDX 210753Z 17008KT 10SM FEW030 OVC065 13/11 A2988 RMK AO2 SLP117 T01330111 401780122
Loading
Personal Weather Stations






























Interactive Weather Map
Tropical Storm Tracking
New forecast layout! Learn more

10-Day Weather Forecast

Advertisements
Track Severe Weather on mobile